Flight Track Log - Related Links

Times and Time Zones

All times are in EDT time to prevent confusion due to time zone crossing. See the GPD20 flight status page for this flight to view local times or setup timezone preferences in your user account.


Time Position Orientation Groundspeed Altitude Reporting Facility
EDT Latitude Longitude Course Direction KTS MPH feet Rate Location/Type
Fri 07:09:27 PM 40.9000 -74.0000 57° Northeast 132 152 1,400  Level New York TRACON
Fri 07:10:27 PM 40.9333 -73.9667 37° Northeast 136 157 1,900 600 Climbing New York TRACON
Fri 07:11:27 PM 40.9500 -73.9333 56° Northeast 132 152 2,600 650 Climbing New York TRACON
Fri 07:12:27 PM 40.9667 -73.8833 66° East 137 158 3,200 476 Climbing New York TRACON
Fri 07:13:33 PM 40.9833 -73.8333 66° East 139 160 3,600 476 Climbing New York TRACON
Fri 07:14:33 PM 40.9833 -73.7833 90° East 142 163 4,200 600 Climbing New York TRACON
Fri 07:15:33 PM 41.0000 -73.7333 66° East 144 166 4,800 500 Climbing New York TRACON
Fri 07:16:33 PM 41.0000 -73.6833 90° East 151 174 5,200 350 Climbing New York TRACON
Fri 07:17:33 PM 41.0167 -73.6167 72° East 158 182 5,500 150 Climbing New York TRACON
Fri 07:18:33 PM 41.0167 -73.5667 90° East 167 192 5,500  Level New York TRACON
Fri 07:19:33 PM 41.0333 -73.5000 72° East 168 193 5,500  Level New York TRACON
Fri 07:20:33 PM 41.0333 -73.4500 90° East 171 197 5,500  Level New York TRACON
Fri 07:21:27 PM 41.0500 -73.3833 72° East 173 199 5,500  Level New York TRACON
Fri 07:22:27 PM 41.0500 -73.3167 90° East 170 196 5,500 50 Level New York TRACON
Fri 07:23:27 PM 41.0667 -73.2667 66° East 170 196 5,600  Climbing New York TRACON
Fri 07:24:27 PM 41.0667 -73.2000 90° East 175 201 5,500 -50 Descending New York TRACON
Fri 07:25:27 PM 41.0833 -73.1333 72° East 169 194 5,500  Level New York TRACON
Fri 07:26:27 PM 41.0833 -73.0833 90° East 170 196 5,500 50 Level New York TRACON
Fri 07:27:27 PM 41.0833 -73.0167 90° East 173 199 5,600 50 Climbing New York TRACON
Fri 07:28:27 PM 41.1000 -72.9500 72° East 169 194 5,600 -50 Level New York TRACON
Fri 07:29:27 PM 41.1000 -72.9000 90° East 172 198 5,500 -50 Descending New York TRACON
Fri 07:30:27 PM 41.1167 -72.8333 72° East 171 197 5,500 50 Level New York TRACON
Fri 07:31:27 PM 41.1167 -72.7667 90° East 173 199 5,600 50 Climbing New York TRACON
Fri 07:32:27 PM 41.1333 -72.7000 72° East 170 196 5,600  Level New York TRACON
Fri 07:33:27 PM 41.1333 -72.6500 90° East 171 197 5,600  Level New York TRACON
Fri 07:34:27 PM 41.1500 -72.5833 72° East 173 199 5,600 -50 Level New York TRACON
Fri 07:35:27 PM 41.1500 -72.5167 90° East 172 198 5,500 -50 Descending New York TRACON
Fri 07:36:27 PM 41.1667 -72.4667 66° East 172 198 5,500  Level New York TRACON
Fri 07:37:27 PM 41.1667 -72.4000 90° East 171 197 5,500  Level New York TRACON
Fri 07:38:28 PM 41.1811 -72.3408 72° East 172 198 5,500  Level Boston Center
Fri 07:39:29 PM 41.1875 -72.2800 82° East 171 197 5,500  Level Boston Center
Fri 07:40:31 PM 41.1936 -72.2139 83° East 170 196 5,500  Level Boston Center
Fri 07:41:31 PM 41.2017 -72.1503 80° East 174 200 5,500 50 Level Boston Center
Fri 07:42:31 PM 41.2161 -72.0869 73° East 168 193 5,600  Climbing Boston Center
Fri 07:43:32 PM 41.2264 -72.0233 78° East 176 203 5,500 -50 Descending Boston Center
Fri 07:44:32 PM 41.2322 -71.9597 83° East 170 196 5,500  Level Boston Center
Fri 07:45:33 PM 41.2425 -71.8964 78° East 170 196 5,500  Level Boston Center
Fri 07:46:35 PM 41.2547 -71.8353 75° East 173 199 5,500  Level Boston Center
Fri 07:47:30 PM 41.2564 -71.7775 88° East 176 203 5,500 49 Level Boston Center
Fri 07:48:37 PM 41.2642 -71.7056 82° East 171 197 5,600  Climbing Boston Center
Fri 07:49:49 PM 41.2719 -71.6281 82° East 175 201 5,500 -94 Descending Boston Center
Fri 07:50:44 PM 41.2758 -71.5756 84° East 165 190 5,400 -148 Descending Boston Center
Fri 07:51:51 PM 41.2878 -71.4981 78° East 179 206 5,200 -236 Descending Boston Center
Fri 07:52:51 PM 41.2997 -71.4344 76° East 188 216 4,900 -298 Descending Boston Center
Fri 07:53:52 PM 41.3053 -71.3653 84° East 187 215 4,600 -378 Descending Boston Center
Fri 07:54:58 PM 41.3192 -71.2903 76° East 186 214 4,100 -455 Descending Boston Center
Fri 07:56:00 PM 41.3167 -71.2186 90° East  Level FlightAware Approximate
Fri 08:03:00 PM 41.3600 -70.7568 77° East  Level FlightAware Approximate
Fri 08:04:00 PM 41.3705 -70.6899 79° East  Level FlightAware Approximate
Fri 08:05:00 PM 41.3801 -70.6228 79° East  Level FlightAware Approximate

Login

Don't have an account? Register now (free) for customized features, flight alerts, and more!